Time;durP1;ratioP1;P1;durP2;ratioP2;P2;SDS_P1;SDS_P2;PMS_P1;PMS_P2;Temp;Humidity;BMP_temperature;BMP_pressure;BME280_temperature;BME280_humidity;BME280_pressure;Samples;Min_cycle;Max_cycle;Signal;HPM_P1;HPM_P2
2023/03/15 00:00:56;;;;;;;3.03;2.83;;;;;;;6.75;100.00;147745.34;5040284;28;20315;-65
2023/03/15 00:03:24;;;;;;;3.50;3.20;;;;;;;6.89;100.00;147780.66;5041719;28;20193;-66
2023/03/15 00:05:52;;;;;;;4.03;3.63;;;;;;;6.72;100.00;147736.56;5038850;28;20222;-65
2023/03/15 00:08:20;;;;;;;3.43;3.17;;;;;;;6.84;100.00;147768.06;5040149;28;20636;-65
2023/03/15 00:10:48;;;;;;;5.20;3.00;;;;;;;6.87;100.00;147775.59;5036403;28;20258;-65
2023/03/15 00:13:17;;;;;;;3.80;3.30;;;;;;;6.97;100.00;147798.28;5040928;28;20186;-66
2023/03/15 00:15:48;;;;;;;5.80;2.80;;;;;;;6.98;100.00;147800.81;5039317;28;20186;-66
2023/03/15 00:18:16;;;;;;;3.33;2.40;;;;;;;6.93;100.00;147789.47;5039769;28;20631;-65
2023/03/15 00:20:43;;;;;;;3.13;2.93;;;;;;;7.01;100.00;147808.38;5041025;28;20216;-65
2023/03/15 00:23:11;;;;;;;5.43;2.63;;;;;;;6.99;100.00;147804.63;5040202;28;20626;-65
2023/03/15 00:25:38;;;;;;;2.87;2.60;;;;;;;7.04;100.00;147817.22;5039110;28;20194;-65
2023/03/15 00:28:05;;;;;;;5.30;1.93;;;;;;;7.00;100.00;147807.09;5035862;28;20492;-65
2023/03/15 00:30:34;;;;;;;2.20;2.10;;;;;;;7.01;100.00;147808.38;5039851;28;20186;-65
2023/03/15 00:33:01;;;;;;;2.73;2.63;;;;;;;7.03;100.00;147813.44;5039028;28;20273;-65
2023/03/15 00:35:27;;;;;;;4.67;2.20;;;;;;;7.07;100.00;147824.78;5041207;28;20312;-65
2023/03/15 00:37:55;;;;;;;2.17;1.93;;;;;;;7.07;100.00;147823.50;5040603;28;20532;-66
2023/03/15 00:40:22;;;;;;;2.37;2.27;;;;;;;7.22;100.00;147861.31;5039005;28;20557;-66
2023/03/15 00:42:49;;;;;;;2.50;2.33;;;;;;;7.27;100.00;147875.19;5040380;28;20650;-65
2023/03/15 00:45:17;;;;;;;2.53;2.30;;;;;;;7.25;100.00;147870.16;5040632;28;20613;-67
2023/03/15 00:47:48;;;;;;;4.43;2.40;;;;;;;7.40;100.00;147905.44;5039352;28;20213;-66
2023/03/15 00:50:15;;;;;;;3.60;2.40;;;;;;;7.39;100.00;147902.91;5039484;28;20184;-65
2023/03/15 00:52:42;;;;;;;2.30;2.10;;;;;;;7.35;100.00;147894.09;5043631;28;20194;-66
2023/03/15 00:55:13;;;;;;;2.80;2.60;;;;;;;7.16;100.00;147846.22;5050323;28;20186;-65
2023/03/15 00:57:40;;;;;;;3.37;3.13;;;;;;;7.30;100.00;147882.75;5050472;28;20614;-65
2023/03/15 01:00:09;;;;;;;3.43;2.67;;;;;;;7.38;100.00;147901.69;5040662;28;20202;-66
2023/03/15 01:02:37;;;;;;;4.20;2.50;;;;;;;7.34;100.00;147891.59;5036232;28;20196;-65
2023/03/15 01:05:06;;;;;;;2.73;2.33;;;;;;;7.27;100.00;147875.19;5040635;28;20190;-65
2023/03/15 01:07:33;;;;;;;5.67;2.60;;;;;;;7.31;100.00;147884.00;5035089;28;20190;-65
2023/03/15 01:10:03;;;;;;;2.87;2.67;;;;;;;7.35;100.00;147894.09;5039512;28;20186;-65
2023/03/15 01:12:32;;;;;;;3.30;3.10;;;;;;;7.29;100.00;147879.00;5040868;28;20194;-66
2023/03/15 01:14:59;;;;;;;5.53;2.57;;;;;;;7.29;100.00;147879.00;5039097;28;20227;-65
2023/03/15 01:17:27;;;;;;;3.30;2.30;;;;;;;7.28;100.00;147876.44;5044883;28;20229;-66
2023/03/15 01:19:54;;;;;;;3.10;2.50;;;;;;;7.28;100.00;147876.44;5049057;28;20210;-66
2023/03/15 01:22:22;;;;;;;2.50;2.30;;;;;;;7.25;100.00;147868.91;5048974;28;20280;-67
2023/03/15 01:24:49;;;;;;;2.63;2.53;;;;;;;7.21;100.00;147858.81;5049294;28;20205;-64
2023/03/15 01:27:16;;;;;;;7.80;3.17;;;;;;;7.18;100.00;147852.50;5048904;28;20646;-65
2023/03/15 01:29:43;;;;;;;2.93;2.53;;;;;;;7.13;100.00;147838.66;5049209;28;20185;-65
2023/03/15 01:32:10;;;;;;;2.77;2.57;;;;;;;7.14;100.00;147841.16;5049232;28;20277;-65
2023/03/15 01:34:37;;;;;;;3.93;2.50;;;;;;;7.11;100.00;147833.59;5049333;28;20551;-65
2023/03/15 01:37:04;;;;;;;3.70;2.57;;;;;;;6.97;100.00;147798.28;5048469;28;20186;-66
2023/03/15 01:39:32;;;;;;;5.53;2.70;;;;;;;7.01;100.00;147809.63;5049008;28;20211;-64
2023/03/15 01:41:59;;;;;;;2.70;2.50;;;;;;;7.08;100.00;147826.03;5048829;28;20189;-64
2023/03/15 01:44:49;;;;;;;3.13;2.80;;;;;;;7.14;100.00;147841.16;5049034;28;20651;-65
2023/03/15 01:47:16;;;;;;;2.93;2.83;;;;;;;7.11;100.00;147833.59;5046718;28;20196;-64
2023/03/15 01:49:46;;;;;;;3.27;3.07;;;;;;;7.13;100.00;147839.88;5049197;28;20674;-65
2023/03/15 01:52:18;;;;;;;3.17;2.97;;;;;;;7.02;100.00;147812.16;5044242;28;20199;-64
2023/03/15 01:54:52;;;;;;;3.23;2.93;;;;;;;6.96;100.00;147795.81;5049431;28;20514;-66
2023/03/15 01:57:22;;;;;;;3.50;3.30;;;;;;;7.00;100.00;147807.09;5049370;28;20189;-64
2023/03/15 01:59:56;;;;;;;6.00;3.90;;;;;;;6.98;100.00;147800.81;5049246;28;20208;-65
2023/03/15 02:02:25;;;;;;;3.53;3.20;;;;;;;6.89;100.00;147779.41;5049733;28;20197;-65
2023/03/15 02:04:57;;;;;;;4.40;3.97;;;;;;;6.92;100.00;147785.72;5049431;28;20624;-66
2023/03/15 02:07:27;;;;;;;4.20;3.83;;;;;;;6.94;100.00;147713.00;5049449;28;20220;-66
2023/03/15 02:10:01;;;;;;;3.80;3.50;;;;;;;6.88;100.00;145320.22;5049329;28;20187;-66
2023/03/15 02:12:31;;;;;;;7.03;3.53;;;;;;;6.71;100.00;144077.31;5049194;28;20185;-66
2023/03/15 02:15:01;;;;;;;3.83;3.47;;;;;;;6.86;100.00;141024.09;5049304;28;20636;-66
2023/03/15 02:17:36;;;;;;;3.83;3.37;;;;;;;6.74;100.00;141655.78;5036596;27;20608;-66
2023/03/15 02:20:26;;;;;;;5.97;3.20;;;;;;;6.90;100.00;139774.53;5029338;28;20210;-65
2023/03/15 02:22:55;;;;;;;3.60;3.30;;;;;;;6.93;100.00;141288.00;5029538;28;20218;-65
2023/03/15 02:25:31;;;;;;;3.53;3.33;;;;;;;6.93;100.00;140625.94;5029130;28;20190;-65
2023/03/15 02:28:00;;;;;;;4.47;3.30;;;;;;;6.83;100.00;140919.78;5028613;28;20185;-66
2023/03/15 02:30:27;;;;;;;3.53;3.27;;;;;;;6.84;100.00;136813.28;5029361;28;20191;-65
2023/03/15 02:32:54;;;;;;;4.13;3.93;;;;;;;6.80;100.00;131518.75;5029072;28;20273;-65
2023/03/15 02:35:26;;;;;;;4.07;3.77;;;;;;;6.81;100.00;128519.50;5029086;28;20560;-65
2023/03/15 02:37:53;;;;;;;3.50;3.30;;;;;;;6.65;100.00;124615.00;5029198;28;20183;-66
2023/03/15 02:40:22;;;;;;;3.70;3.50;;;;;;;6.65;100.00;117682.34;5028954;28;20213;-66
2023/03/15 02:42:53;;;;;;;8.27;4.50;;;;;;;6.82;100.00;115745.28;5029261;28;20186;-64
2023/03/15 02:45:21;;;;;;;3.00;2.80;;;;;;;6.73;100.00;116055.06;5029413;28;20569;-66
2023/03/15 02:47:49;;;;;;;3.43;3.23;;;;;;;6.79;100.00;117052.94;5028881;28;20570;-64
2023/03/15 02:50:16;;;;;;;5.50;3.70;;;;;;;6.70;100.00;112437.63;5029290;28;20190;-65
2023/03/15 02:52:43;;;;;;;4.10;3.80;;;;;;;6.76;100.00;109166.97;5028915;28;20187;-65
2023/03/15 02:55:10;;;;;;;4.73;3.30;;;;;;;6.78;100.00;107532.16;5028500;28;20307;-66
2023/03/15 02:57:38;;;;;;;3.60;3.30;;;;;;;6.76;100.00;107199.75;5028939;28;20212;-65
2023/03/15 03:00:13;;;;;;;3.70;3.40;;;;;;;6.77;100.00;104908.75;5028571;28;20209;-65
2023/03/15 03:02:42;;;;;;;5.17;3.27;;;;;;;6.82;100.00;103607.59;5028617;28;20193;-66
2023/03/15 03:05:10;;;;;;;6.90;3.63;;;;;;;6.88;100.00;103617.31;5028510;28;20190;-66
2023/03/15 03:07:37;;;;;;;5.10;4.27;;;;;;;6.92;100.00;105590.13;5028682;28;20186;-65
2023/03/15 03:10:05;;;;;;;4.53;4.13;;;;;;;6.95;100.00;107234.59;5028464;28;20185;-65
2023/03/15 03:12:32;;;;;;;4.93;4.37;;;;;;;7.01;100.00;107572.56;5028978;28;20277;-66
2023/03/15 03:15:01;;;;;;;4.70;3.67;;;;;;;7.02;100.00;105607.28;5028996;28;20552;-65
2023/03/15 03:17:28;;;;;;;4.10;3.80;;;;;;;7.10;100.00;106277.41;5028371;28;20724;-65
2023/03/15 03:19:56;;;;;;;5.50;3.20;;;;;;;7.06;100.00;109806.56;5095707;28;20186;-66
2023/03/15 03:22:24;;;;;;;5.23;3.10;;;;;;;7.09;100.00;110985.09;5029468;28;20625;-65
2023/03/15 03:24:51;;;;;;;11.87;4.20;;;;;;;7.08;100.00;111188.41;5028766;28;20239;-64
2023/03/15 03:27:19;;;;;;;3.00;2.80;;;;;;;7.07;100.00;111255.75;5028581;28;20557;-65
2023/03/15 03:29:45;;;;;;;3.13;2.83;;;;;;;7.06;100.00;114442.63;5028142;28;20193;-65
2023/03/15 03:32:13;;;;;;;5.17;3.03;;;;;;;7.08;100.00;114932.81;5028442;28;20218;-66
2023/03/15 03:34:39;;;;;;;2.80;2.60;;;;;;;7.08;100.00;116657.78;5095979;28;20651;-66
2023/03/15 03:37:08;;;;;;;3.27;2.30;;;;;;;7.07;100.00;118421.09;5028405;28;20649;-65
2023/03/15 03:39:35;;;;;;;2.83;2.60;;;;;;;7.14;100.00;118802.84;5028752;28;20246;-65
2023/03/15 03:42:01;;;;;;;2.53;2.33;;;;;;;7.12;100.00;121913.38;5031902;28;20214;-65
2023/03/15 03:44:28;;;;;;;2.73;2.53;;;;;;;7.08;100.00;123436.25;5031604;28;20202;-65
2023/03/15 03:46:55;;;;;;;2.80;2.13;;;;;;;7.14;100.00;123289.25;5032458;28;20183;-65
2023/03/15 03:49:22;;;;;;;5.07;2.40;;;;;;;7.07;100.00;131366.72;5031838;28;20183;-66
2023/03/15 03:51:51;;;;;;;2.40;2.20;;;;;;;7.15;100.00;135915.56;5031258;28;20182;-65
2023/03/15 03:54:20;;;;;;;2.77;2.67;;;;;;;7.25;100.00;136250.25;5031164;28;20251;-65
2023/03/15 03:56:47;;;;;;;3.10;2.73;;;;;;;7.21;100.00;140182.09;5031643;28;20190;-66
2023/03/15 03:59:14;;;;;;;2.00;1.90;;;;;;;7.24;100.00;143557.78;5031507;28;20633;-66
2023/03/15 04:01:42;;;;;;;5.53;2.87;;;;;;;7.23;100.00;145118.22;5031822;28;20247;-65
2023/03/15 04:04:12;;;;;;;6.17;2.73;;;;;;;7.26;100.00;144489.75;5031624;28;20208;-66
2023/03/15 04:06:44;;;;;;;4.47;2.30;;;;;;;7.31;100.00;144327.19;5031918;28;20193;-67
2023/03/15 04:09:11;;;;;;;3.10;2.90;;;;;;;7.13;100.00;143049.38;5031032;28;20660;-66
2023/03/15 04:11:41;;;;;;;7.83;2.90;;;;;;;7.20;100.00;142918.88;5031648;28;20555;-66
2023/03/15 04:14:09;;;;;;;3.17;2.47;;;;;;;7.37;100.00;142388.09;5031173;28;20197;-65
2023/03/15 04:16:36;;;;;;;2.43;2.27;;;;;;;7.40;100.00;143067.38;5031431;28;20627;-66
2023/03/15 04:19:03;;;;;;;4.47;2.60;;;;;;;6.91;100.00;143101.81;5031122;28;20550;-66
2023/03/15 04:21:31;;;;;;;2.77;2.50;;;;;;;7.27;100.00;146825.34;5031320;28;20626;-66
2023/03/15 04:23:58;;;;;;;2.87;2.67;;;;;;;7.42;100.00;147911.78;5031018;28;20194;-66
2023/03/15 04:26:25;;;;;;;2.33;2.23;;;;;;;7.33;100.00;147889.06;5031438;28;20614;-66
2023/03/15 04:28:54;;;;;;;3.43;2.80;;;;;;;7.10;100.00;147831.06;5031642;28;20194;-66
2023/03/15 04:31:25;;;;;;;6.17;2.63;;;;;;;7.31;100.00;147885.28;5031682;28;20596;-66
2023/03/15 04:33:53;;;;;;;6.10;2.63;;;;;;;7.41;100.00;147907.97;5031437;28;20677;-65
2023/03/15 04:36:20;;;;;;;4.57;2.60;;;;;;;7.47;100.00;147923.13;5030616;28;20186;-65
2023/03/15 04:38:46;;;;;;;3.50;2.83;;;;;;;7.47;100.00;147924.34;5030641;28;20182;-65
2023/03/15 04:41:14;;;;;;;2.77;2.33;;;;;;;7.43;100.00;147914.25;5031078;28;20233;-66
2023/03/15 04:43:41;;;;;;;8.33;3.07;;;;;;;7.50;100.00;147930.69;5030651;28;20190;-65
2023/03/15 04:46:09;;;;;;;2.80;2.60;;;;;;;7.50;100.00;147930.69;5030223;28;20189;-65
2023/03/15 04:48:36;;;;;;;1.90;1.80;;;;;;;7.33;100.00;147889.06;5030961;28;20194;-65
2023/03/15 04:51:03;;;;;;;3.43;2.47;;;;;;;7.50;100.00;147931.94;5030104;28;20560;-66
2023/03/15 04:53:30;;;;;;;5.00;2.97;;;;;;;7.63;100.00;147963.47;5030478;28;20263;-66
2023/03/15 04:55:57;;;;;;;2.93;2.70;;;;;;;7.58;100.00;147952.13;5031253;28;20656;-66
2023/03/15 04:58:24;;;;;;;5.43;3.10;;;;;;;7.34;100.00;147891.59;5031020;28;20534;-65
2023/03/15 05:00:53;;;;;;;2.90;2.70;;;;;;;7.64;100.00;147965.94;5030535;28;20202;-66
2023/03/15 05:03:21;;;;;;;3.20;2.67;;;;;;;7.64;100.00;147965.94;5030885;28;20558;-65
2023/03/15 05:05:48;;;;;;;3.80;2.87;;;;;;;7.48;100.00;147926.88;5030423;28;20198;-66
2023/03/15 05:08:15;;;;;;;4.90;2.83;;;;;;;7.33;100.00;147889.06;5030403;28;20200;-66
2023/03/15 05:10:42;;;;;;;3.97;2.87;;;;;;;7.73;100.00;147988.66;5029915;28;20186;-65
2023/03/15 05:13:09;;;;;;;5.10;3.27;;;;;;;7.80;100.00;148007.59;5030032;28;20178;-67
2023/03/15 05:15:36;;;;;;;3.40;3.17;;;;;;;7.78;100.00;148001.28;5030178;28;20190;-66
2023/03/15 05:18:02;;;;;;;4.60;3.40;;;;;;;7.95;100.00;148042.91;5030059;28;20250;-67
2023/03/15 05:20:31;;;;;;;6.97;3.03;;;;;;;7.89;100.00;148029.06;5030349;28;20213;-65
2023/03/15 05:22:58;;;;;;;4.00;2.23;;;;;;;7.93;100.00;148037.88;5030622;28;20213;-65
2023/03/15 05:25:25;;;;;;;2.97;2.77;;;;;;;8.01;100.00;148058.06;5031065;28;20194;-66
2023/03/15 05:27:52;;;;;;;3.40;3.10;;;;;;;8.10;100.00;148082.03;5030392;28;20273;-65
2023/03/15 05:30:20;;;;;;;4.87;3.33;;;;;;;8.22;100.00;148111.03;5032992;28;20235;-64
2023/03/15 05:32:47;;;;;;;3.97;3.00;;;;;;;8.25;100.00;148119.84;5031642;28;20186;-65
2023/03/15 05:35:14;;;;;;;6.40;3.43;;;;;;;8.46;100.00;148171.63;5031223;28;20656;-66
2023/03/15 05:37:42;;;;;;;6.77;4.03;;;;;;;8.58;100.00;148200.66;5030936;28;20190;-66
2023/03/15 05:40:10;;;;;;;4.00;3.40;;;;;;;8.57;100.00;148199.38;5031214;28;20182;-66
2023/03/15 05:42:37;;;;;;;4.97;3.77;;;;;;;8.62;100.00;148212.00;5030006;28;20274;-64
2023/03/15 05:45:05;;;;;;;3.53;3.00;;;;;;;8.92;100.00;148286.47;5030445;28;20511;-65
2023/03/15 05:47:31;;;;;;;3.87;2.70;;;;;;;8.88;100.00;148275.09;5030363;28;20194;-66
2023/03/15 05:49:58;;;;;;;10.63;2.90;;;;;;;8.84;100.00;148265.00;5029815;28;20186;-65
2023/03/15 05:52:25;;;;;;;5.17;2.73;;;;;;;8.90;100.00;148281.44;5030322;28;20521;-65
2023/03/15 05:54:53;;;;;;;4.27;3.27;;;;;;;9.06;100.00;148321.84;5030775;28;20197;-65
2023/03/15 05:57:20;;;;;;;3.93;2.93;;;;;;;9.32;100.00;148386.22;5030457;28;20189;-66
2023/03/15 05:59:47;;;;;;;7.10;3.60;;;;;;;9.33;100.00;148387.50;5030480;28;20198;-67
2023/03/15 06:02:14;;;;;;;3.30;3.00;;;;;;;9.57;100.00;148449.38;5031048;28;20206;-67
2023/03/15 06:04:41;;;;;;;7.87;4.07;;;;;;;9.83;100.00;148512.53;5030645;28;20190;-69
2023/03/15 06:07:08;;;;;;;5.60;3.97;;;;;;;10.07;100.00;148574.44;5032477;28;20182;-65
2023/03/15 06:09:35;;;;;;;11.43;4.27;;;;;;;10.19;100.00;148603.53;5031169;28;20186;-65
2023/03/15 06:12:04;;;;;;;2.57;2.47;;;;;;;10.24;100.00;148616.19;5031040;28;20186;-66
2023/03/15 06:14:31;;;;;;;10.87;4.83;;;;;;;10.54;100.00;148692.00;5030314;28;20245;-64
2023/03/15 06:16:57;;;;;;;9.50;2.83;;;;;;;10.91;100.00;148784.28;5030891;28;20226;-63
2023/03/15 06:19:25;;;;;;;2.63;2.53;;;;;;;11.07;100.00;148823.50;5031919;28;20186;-63
2023/03/15 06:21:52;;;;;;;5.43;4.10;;;;;;;11.29;100.00;148877.84;5029062;28;20244;-64
2023/03/15 06:24:20;;;;;;;6.90;3.10;;;;;;;11.67;100.00;148972.78;5029043;28;20190;-63
2023/03/15 06:26:47;;;;;;;8.90;2.67;;;;;;;12.07;100.00;149074.03;5029085;28;20197;-64
2023/03/15 06:29:16;;;;;;;5.03;3.17;;;;;;;12.68;100.00;149225.94;5028977;28;20186;-62
2023/03/15 06:31:43;;;;;;;3.03;2.17;;;;;;;13.05;100.00;149318.38;5029650;28;20581;-64
2023/03/15 06:34:10;;;;;;;4.97;2.40;;;;;;;13.02;100.00;149312.06;5028950;28;20265;-63
2023/03/15 06:36:37;;;;;;;4.27;2.30;;;;;;;13.96;100.00;149547.72;5029250;28;20228;-63
2023/03/15 06:39:04;;;;;;;5.03;2.30;;;;;;;14.28;100.00;149627.59;5029495;28;20186;-64
2023/03/15 06:41:31;;;;;;;4.93;2.23;;;;;;;14.10;100.00;149583.22;5029175;28;20255;-63
2023/03/15 06:43:58;;;;;;;2.47;2.27;;;;;;;13.84;100.00;149517.31;5029529;28;20676;-64
2023/03/15 06:46:26;;;;;;;15.13;3.13;;;;;;;14.23;100.00;149613.63;5029177;28;20560;-63
2023/03/15 06:48:53;;;;;;;8.37;2.87;;;;;;;14.14;100.00;149593.34;5029181;28;20658;-63
2023/03/15 06:51:20;;;;;;;9.10;3.23;;;;;;;14.24;100.00;149616.19;5029203;28;20190;-63
2023/03/15 06:53:47;;;;;;;3.20;3.00;;;;;;;13.67;100.00;149474.22;5028450;28;20190;-62
2023/03/15 06:56:14;;;;;;;12.00;3.53;;;;;;;13.67;100.00;149474.22;5028467;28;20572;-63
2023/03/15 06:58:41;;;;;;;11.97;2.90;;;;;;;13.42;100.00;149410.88;5028687;28;20629;-62
2023/03/15 07:01:11;;;;;;;5.83;3.00;;;;;;;13.23;100.00;149365.28;5028681;28;20186;-64
2023/03/15 07:03:39;;;;;;;3.80;3.50;;;;;;;12.92;100.00;149285.44;5028741;28;20229;-62
2023/03/15 07:06:06;;;;;;;11.57;3.63;;;;;;;12.82;100.00;149261.34;5028971;28;20589;-61
2023/03/15 07:08:33;;;;;;;3.30;2.70;;;;;;;12.78;100.00;149252.50;5028582;28;20640;-62
2023/03/15 07:11:00;;;;;;;2.77;2.40;;;;;;;12.97;100.00;149299.38;5028015;28;20190;-62
2023/03/15 07:13:27;;;;;;;11.03;2.50;;;;;;;12.20;100.00;149106.94;5028086;28;20187;-62
2023/03/15 07:15:55;;;;;;;5.80;4.77;;;;;;;11.94;100.00;149039.84;5030568;28;20197;-61
2023/03/15 07:18:22;;;;;;;6.57;3.77;;;;;;;11.87;100.00;149023.41;5051688;28;20660;-61
2023/03/15 07:20:57;;;;;;;7.30;3.00;;;;;;;12.21;100.00;149109.47;5051794;28;20532;-61
2023/03/15 07:23:24;;;;;;;4.33;1.63;;;;;;;12.13;100.00;149089.22;5051640;28;20205;-61
2023/03/15 07:25:51;;;;;;;6.30;2.70;;;;;;;12.18;100.00;149100.56;5051659;28;20189;-61
2023/03/15 07:28:24;;;;;;;3.67;3.17;;;;;;;11.51;100.00;148933.53;5051308;28;20269;-61
2023/03/15 07:30:55;;;;;;;8.40;4.13;;;;;;;12.42;100.00;149161.38;5051196;28;20186;-62
2023/03/15 07:33:23;;;;;;;4.40;3.33;;;;;;;12.44;100.00;149165.13;5051477;28;20212;-62
2023/03/15 07:35:50;;;;;;;8.30;3.70;;;;;;;12.42;100.00;149160.09;5051614;28;20663;-63
2023/03/15 07:38:22;;;;;;;6.77;2.50;;;;;;;12.16;100.00;149096.81;5051266;28;20193;-61
2023/03/15 07:40:52;;;;;;;3.50;3.23;;;;;;;12.30;100.00;149132.25;5051411;28;20190;-62
2023/03/15 07:43:19;;;;;;;5.63;3.03;;;;;;;12.62;100.00;149212.00;5051134;28;20201;-64
2023/03/15 07:45:46;;;;;;;5.47;3.00;;;;;;;12.25;100.00;149118.31;5051318;28;20250;-61
2023/03/15 07:48:13;;;;;;;13.10;4.50;;;;;;;12.08;100.00;149076.56;5051135;28;20190;-62
2023/03/15 07:50:40;;;;;;;6.90;3.33;;;;;;;12.30;100.00;149132.25;5051053;28;20194;-61
2023/03/15 07:53:07;;;;;;;4.90;3.00;;;;;;;12.06;100.00;149070.22;5050812;28;20182;-61
2023/03/15 07:55:36;;;;;;;5.87;3.77;;;;;;;11.75;100.00;148993.06;5033131;28;20190;-62
2023/03/15 07:58:05;;;;;;;5.67;3.93;;;;;;;11.83;100.00;149014.56;5050793;28;20273;-63
2023/03/15 08:00:33;;;;;;;6.10;2.97;;;;;;;12.02;100.00;149061.34;5050843;28;20205;-62
2023/03/15 08:03:00;;;;;;;7.07;3.37;;;;;;;11.87;100.00;149023.41;5050867;28;20229;-64
2023/03/15 08:05:27;;;;;;;6.47;3.53;;;;;;;11.71;100.00;148982.88;5050867;28;20193;-62
2023/03/15 08:07:55;;;;;;;2.67;2.57;;;;;;;11.47;100.00;148923.41;5051158;28;20189;-62
2023/03/15 08:10:22;;;;;;;7.17;3.20;;;;;;;11.63;100.00;148962.59;5051145;28;20697;-62
2023/03/15 08:12:50;;;;;;;6.67;3.07;;;;;;;11.14;100.00;148839.94;5050609;28;20182;-62
2023/03/15 08:15:18;;;;;;;7.53;3.60;;;;;;;10.85;100.00;148767.88;5050992;28;20196;-62
2023/03/15 08:17:50;;;;;;;4.93;3.63;;;;;;;11.04;100.00;148815.91;5050407;28;20229;-62
2023/03/15 08:20:18;;;;;;;5.53;3.80;;;;;;;11.11;100.00;148833.63;5050566;28;20564;-62
2023/03/15 08:22:46;;;;;;;4.97;3.67;;;;;;;11.18;100.00;148851.31;5050694;28;20210;-61
2023/03/15 08:25:15;;;;;;;3.93;3.63;;;;;;;11.00;100.00;148805.78;5086778;27;20186;-62
2023/03/15 08:27:42;;;;;;;8.40;4.73;;;;;;;11.26;100.00;148871.56;5154556;27;20192;-62
2023/03/15 08:30:13;;;;;;;10.50;3.97;;;;;;;11.64;100.00;148965.16;5061551;27;20185;-62
2023/03/15 08:32:41;;;;;;;6.23;4.40;;;;;;;11.84;100.00;149015.78;5050527;28;20193;-62
2023/03/15 08:35:09;;;;;;;9.73;4.40;;;;;;;12.06;100.00;149071.47;5050636;28;20188;-62
2023/03/15 08:37:36;;;;;;;5.27;3.40;;;;;;;12.00;100.00;149055.06;5050447;28;20302;-62
2023/03/15 08:40:08;;;;;;;4.30;3.20;;;;;;;11.95;100.00;149042.38;5049562;28;20185;-63
2023/03/15 08:42:35;;;;;;;3.43;2.60;;;;;;;11.85;100.00;149018.34;5050437;28;20206;-62
2023/03/15 08:45:03;;;;;;;7.37;3.77;;;;;;;11.97;100.00;149047.41;5050520;28;20242;-62
2023/03/15 08:47:34;;;;;;;4.57;4.17;;;;;;;11.45;100.00;148918.38;5049951;28;20257;-62
2023/03/15 08:50:04;;;;;;;4.63;3.80;;;;;;;11.19;100.00;148853.84;5033852;27;20205;-62
2023/03/15 08:52:31;;;;;;;8.40;4.83;;;;;;;11.21;100.00;148858.91;5050137;28;20182;-59
2023/03/15 08:54:58;;;;;;;5.17;4.67;;;;;;;10.92;100.00;148786.81;5050166;28;20629;-61
2023/03/15 08:57:27;;;;;;;11.70;4.77;;;;;;;10.90;100.00;148780.53;5049762;28;20189;-63
2023/03/15 08:59:54;;;;;;;4.23;3.77;;;;;;;10.80;100.00;148755.22;5048860;28;20189;-62
2023/03/15 09:02:22;;;;;;;5.57;4.10;;;;;;;10.35;100.00;148644.00;5050110;28;20213;-61
2023/03/15 09:04:51;;;;;;;4.13;3.93;;;;;;;10.45;100.00;148669.25;5049792;28;20193;-61
2023/03/15 09:07:17;;;;;;;6.73;5.03;;;;;;;10.75;100.00;148743.84;5049815;28;20262;-61
2023/03/15 09:09:46;;;;;;;7.63;5.73;;;;;;;11.08;100.00;148824.75;5049696;28;20182;-61
2023/03/15 09:12:14;;;;;;;8.13;5.67;;;;;;;10.93;100.00;148789.38;5049788;28;20202;-62
2023/03/15 09:14:43;;;;;;;11.43;5.73;;;;;;;10.86;100.00;148770.41;5049215;28;20204;-62
2023/03/15 09:17:10;;;;;;;13.13;5.90;;;;;;;10.85;100.00;148769.13;5047563;28;20721;-62
2023/03/15 09:19:38;;;;;;;8.17;5.80;;;;;;;10.84;100.00;148765.31;5048424;28;20182;-62
2023/03/15 09:22:06;;;;;;;9.63;6.23;;;;;;;10.50;100.00;148681.91;5048263;28;20258;-61
2023/03/15 09:24:34;;;;;;;5.97;5.67;;;;;;;10.90;100.00;148780.53;5048264;28;20215;-61
2023/03/15 09:27:00;;;;;;;6.93;5.93;;;;;;;10.87;100.00;148772.91;5048399;28;20709;-61
2023/03/15 09:29:27;;;;;;;10.23;7.03;;;;;;;11.10;100.00;148831.09;5032391;28;20188;-61
2023/03/15 09:31:55;;;;;;;20.23;7.93;;;;;;;11.29;100.00;148877.84;5048045;28;20199;-62
2023/03/15 09:34:22;;;;;;;8.80;7.03;;;;;;;11.67;100.00;148974.00;5048227;28;20195;-62
2023/03/15 09:36:51;;;;;;;8.07;6.97;;;;;;;11.58;100.00;148950.00;5046725;28;20207;-62
2023/03/15 09:39:21;;;;;;;9.20;7.60;;;;;;;11.73;100.00;148987.97;5045907;28;20189;-61
2023/03/15 09:41:52;;;;;;;14.70;7.90;;;;;;;12.25;100.00;149119.59;5048132;28;20677;-61
2023/03/15 09:44:32;;;;;;;11.27;8.07;;;;;;;11.84;100.00;149015.78;5045908;28;20192;-61
2023/03/15 09:47:14;;;;;;;10.90;9.00;;;;;;;11.43;100.00;148914.56;5046062;28;20186;-61
2023/03/15 09:49:47;;;;;;;16.60;9.57;;;;;;;11.32;100.00;148886.75;5046533;28;20196;-61
2023/03/15 09:52:26;;;;;;;20.17;9.70;;;;;;;11.15;100.00;148843.75;5048476;28;20559;-62
2023/03/15 09:54:59;;;;;;;14.80;10.27;;;;;;;11.10;100.00;148831.09;5047180;28;20197;-62
2023/03/15 09:57:35;;;;;;;27.50;11.43;;;;;;;10.99;100.00;148804.50;5048288;28;20220;-62
2023/03/15 10:00:05;;;;;;;10.03;9.23;;;;;;;10.79;100.00;148752.69;5030568;28;20197;-63
2023/03/15 10:02:32;;;;;;;15.53;11.80;;;;;;;10.90;100.00;148780.53;5048226;28;20217;-60
2023/03/15 10:05:06;;;;;;;13.00;10.67;;;;;;;10.97;100.00;148798.22;5049177;28;20556;-59
2023/03/15 10:07:33;;;;;;;11.53;10.53;;;;;;;10.79;100.00;148753.94;5049191;28;20186;-60
2023/03/15 10:10:03;;;;;;;11.13;9.90;;;;;;;10.63;100.00;148712.22;5049059;28;20196;-60
2023/03/15 10:12:39;;;;;;;18.47;11.00;;;;;;;10.66;100.00;148719.81;5049053;28;20268;-59
2023/03/15 10:15:24;;;;;;;12.73;11.50;;;;;;;10.64;100.00;148714.78;5049202;28;20628;-59
2023/03/15 10:18:09;;;;;;;12.77;11.23;;;;;;;10.54;100.00;148690.75;5048621;28;20313;-60
2023/03/15 10:20:41;;;;;;;12.93;11.53;;;;;;;10.35;100.00;148642.75;5049113;28;20556;-59
2023/03/15 10:23:14;;;;;;;17.20;12.13;;;;;;;10.56;100.00;148695.81;5048875;28;20649;-60
2023/03/15 10:25:44;;;;;;;11.63;10.47;;;;;;;10.69;100.00;148727.44;5048743;28;20181;-62
2023/03/15 10:28:25;;;;;;;14.73;13.00;;;;;;;10.81;100.00;148757.75;5048621;28;20186;-61
2023/03/15 10:30:53;;;;;;;11.37;10.67;;;;;;;11.18;100.00;148850.03;5048632;28;20196;-59
2023/03/15 10:33:27;;;;;;;13.80;12.10;;;;;;;10.87;100.00;148772.91;5048619;28;20178;-61
2023/03/15 10:35:55;;;;;;;15.73;12.30;;;;;;;10.96;100.00;148796.94;5048423;28;20185;-60
2023/03/15 10:38:23;;;;;;;13.03;11.90;;;;;;;11.04;100.00;148814.63;5048324;28;20196;-59
2023/03/15 10:40:54;;;;;;;11.87;10.80;;;;;;;11.31;100.00;148882.94;5048636;28;20654;-59
2023/03/15 10:43:23;;;;;;;12.30;10.37;;;;;;;11.26;100.00;148871.56;5048567;28;20211;-59
2023/03/15 10:46:01;;;;;;;12.03;10.77;;;;;;;11.11;100.00;148833.63;5048373;28;20267;-60
2023/03/15 10:48:30;;;;;;;12.20;10.90;;;;;;;11.15;100.00;148843.75;5048918;28;20204;-59
2023/03/15 10:50:57;;;;;;;13.13;11.57;;;;;;;11.13;100.00;148838.66;5047590;28;20185;-60
2023/03/15 10:53:25;;;;;;;13.80;11.80;;;;;;;10.94;100.00;148791.91;5048606;28;20181;-60
2023/03/15 10:56:01;;;;;;;12.03;10.20;;;;;;;11.15;100.00;148842.47;5048484;28;20216;-60
2023/03/15 10:58:31;;;;;;;17.97;11.07;;;;;;;11.02;100.00;148810.88;5048035;28;20228;-60
2023/03/15 11:01:02;;;;;;;14.00;12.73;;;;;;;10.96;100.00;148795.66;5046979;28;20201;-60
2023/03/15 11:03:30;;;;;;;17.37;11.03;;;;;;;11.11;100.00;148832.38;5048421;28;20289;-60
2023/03/15 11:05:58;;;;;;;11.53;10.43;;;;;;;10.85;100.00;148767.88;5048567;28;20651;-59
2023/03/15 11:08:37;;;;;;;14.90;11.90;;;;;;;10.97;100.00;148798.22;5048195;28;20193;-60
2023/03/15 11:11:07;;;;;;;22.57;11.50;;;;;;;11.11;100.00;148832.38;5048426;28;20190;-61
2023/03/15 11:13:35;;;;;;;14.60;11.20;;;;;;;11.40;100.00;148906.97;5048472;28;20572;-59
2023/03/15 11:16:06;;;;;;;13.77;11.50;;;;;;;11.79;100.00;149003.19;5048240;28;20628;-60
2023/03/15 11:18:36;;;;;;;12.67;11.43;;;;;;;12.11;100.00;149084.16;5030230;28;20284;-59
2023/03/15 11:21:08;;;;;;;11.43;10.50;;;;;;;12.00;100.00;149055.06;5031032;28;20198;-60
2023/03/15 11:23:39;;;;;;;16.67;11.60;;;;;;;11.97;100.00;149047.41;5048439;28;20296;-60
2023/03/15 11:26:15;;;;;;;20.47;9.70;;;;;;;11.92;100.00;149034.81;5047958;28;20190;-60